sensor_id;sensor_type;location;lat;lon;timestamp;pressure;altitude;pressure_sealevel;temperature;humidity
73558;BME280;61829;53.286;10.434;2023-03-23T00:01:01;100111.25;;;10.50;91.67
73558;BME280;61829;53.286;10.434;2023-03-23T00:03:28;100109.34;;;10.44;92.35
73558;BME280;61829;53.286;10.434;2023-03-23T00:05:55;100121.34;;;10.41;93.05
73558;BME280;61829;53.286;10.434;2023-03-23T00:08:28;100120.31;;;10.36;93.52
73558;BME280;61829;53.286;10.434;2023-03-23T00:10:54;100123.63;;;10.31;93.65
73558;BME280;61829;53.286;10.434;2023-03-23T00:13:23;100114.44;;;10.25;94.67
73558;BME280;61829;53.286;10.434;2023-03-23T00:15:50;100113.63;;;10.25;95.04
73558;BME280;61829;53.286;10.434;2023-03-23T00:18:18;100110.88;;;10.18;95.53
73558;BME280;61829;53.286;10.434;2023-03-23T00:20:49;100116.47;;;10.17;96.27
73558;BME280;61829;53.286;10.434;2023-03-23T00:23:16;100106.47;;;10.10;96.83
73558;BME280;61829;53.286;10.434;2023-03-23T00:25:47;100107.09;;;10.06;97.31
73558;BME280;61829;53.286;10.434;2023-03-23T00:28:15;100106.69;;;10.02;98.17
73558;BME280;61829;53.286;10.434;2023-03-23T00:30:41;100105.22;;;10.00;98.67
73558;BME280;61829;53.286;10.434;2023-03-23T00:33:08;100111.00;;;9.97;98.81
73558;BME280;61829;53.286;10.434;2023-03-23T00:35:39;100098.94;;;9.93;99.69
73558;BME280;61829;53.286;10.434;2023-03-23T00:38:06;100094.78;;;9.90;99.78
73558;BME280;61829;53.286;10.434;2023-03-23T00:40:31;100100.16;;;9.90;100.00
73558;BME280;61829;53.286;10.434;2023-03-23T00:43:02;100099.56;;;9.88;100.00
73558;BME280;61829;53.286;10.434;2023-03-23T00:45:29;100100.78;;;9.85;100.00
73558;BME280;61829;53.286;10.434;2023-03-23T00:47:55;100094.13;;;9.81;100.00
73558;BME280;61829;53.286;10.434;2023-03-23T00:50:22;100090.59;;;9.81;100.00
73558;BME280;61829;53.286;10.434;2023-03-23T00:52:47;100094.34;;;9.80;100.00
73558;BME280;61829;53.286;10.434;2023-03-23T00:55:18;100098.44;;;9.76;100.00
73558;BME280;61829;53.286;10.434;2023-03-23T00:57:43;100094.09;;;9.75;100.00
73558;BME280;61829;53.286;10.434;2023-03-23T01:00:10;100092.41;;;9.74;100.00
73558;BME280;61829;53.286;10.434;2023-03-23T01:02:36;100088.06;;;9.73;100.00
73558;BME280;61829;53.286;10.434;2023-03-23T01:05:02;100085.59;;;9.71;100.00
73558;BME280;61829;53.286;10.434;2023-03-23T01:07:28;100097.38;;;9.70;100.00
73558;BME280;61829;53.286;10.434;2023-03-23T01:09:56;100083.91;;;9.70;100.00
73558;BME280;61829;53.286;10.434;2023-03-23T01:12:23;100074.38;;;9.67;100.00
73558;BME280;61829;53.286;10.434;2023-03-23T01:14:50;100071.91;;;9.66;100.00
73558;BME280;61829;53.286;10.434;2023-03-23T01:17:16;100070.22;;;9.65;100.00
73558;BME280;61829;53.286;10.434;2023-03-23T01:19:44;100066.50;;;9.66;100.00
73558;BME280;61829;53.286;10.434;2023-03-23T01:22:10;100050.56;;;9.64;100.00
73558;BME280;61829;53.286;10.434;2023-03-23T01:24:35;100051.59;;;9.63;100.00
73558;BME280;61829;53.286;10.434;2023-03-23T01:27:01;100054.47;;;9.62;100.00
73558;BME280;61829;53.286;10.434;2023-03-23T01:29:33;100046.41;;;9.62;100.00
73558;BME280;61829;53.286;10.434;2023-03-23T01:31:59;100039.38;;;9.61;100.00
73558;BME280;61829;53.286;10.434;2023-03-23T01:34:25;100026.31;;;9.58;100.00
73558;BME280;61829;53.286;10.434;2023-03-23T01:36:51;100030.66;;;9.59;100.00
73558;BME280;61829;53.286;10.434;2023-03-23T01:39:17;100024.66;;;9.57;100.00
73558;BME280;61829;53.286;10.434;2023-03-23T01:41:43;100013.06;;;9.56;100.00
73558;BME280;61829;53.286;10.434;2023-03-23T01:46:44;99998.78;;;9.56;100.00
73558;BME280;61829;53.286;10.434;2023-03-23T01:49:15;99993.63;;;9.54;100.00
73558;BME280;61829;53.286;10.434;2023-03-23T01:51:52;99990.28;;;9.52;100.00
73558;BME280;61829;53.286;10.434;2023-03-23T01:54:21;99999.41;;;9.51;100.00
73558;BME280;61829;53.286;10.434;2023-03-23T01:56:55;100002.09;;;9.51;100.00
73558;BME280;61829;53.286;10.434;2023-03-23T01:59:23;99992.34;;;9.50;100.00
73558;BME280;61829;53.286;10.434;2023-03-23T02:01:49;99998.75;;;9.49;100.00
73558;BME280;61829;53.286;10.434;2023-03-23T02:04:18;100000.41;;;9.50;100.00
73558;BME280;61829;53.286;10.434;2023-03-23T02:06:45;100002.28;;;9.50;100.00
73558;BME280;61829;53.286;10.434;2023-03-23T02:09:14;99996.91;;;9.50;100.00
73558;BME280;61829;53.286;10.434;2023-03-23T02:11:43;99983.63;;;9.48;100.00
73558;BME280;61829;53.286;10.434;2023-03-23T02:14:09;99984.47;;;9.49;100.00
73558;BME280;61829;53.286;10.434;2023-03-23T02:19:56;99972.03;;;9.48;100.00
73558;BME280;61829;53.286;10.434;2023-03-23T02:26:03;99965.66;;;9.49;100.00
73558;BME280;61829;53.286;10.434;2023-03-23T02:36:30;99966.47;;;9.49;100.00
73558;BME280;61829;53.286;10.434;2023-03-23T02:41:33;99968.97;;;9.51;100.00
73558;BME280;61829;53.286;10.434;2023-03-23T02:44:02;99974.16;;;9.52;100.00
73558;BME280;61829;53.286;10.434;2023-03-23T02:46:30;99977.47;;;9.54;100.00
73558;BME280;61829;53.286;10.434;2023-03-23T02:48:57;99971.88;;;9.56;100.00
73558;BME280;61829;53.286;10.434;2023-03-23T02:51:25;99961.78;;;9.58;100.00
73558;BME280;61829;53.286;10.434;2023-03-23T02:53:54;99963.41;;;9.59;100.00
73558;BME280;61829;53.286;10.434;2023-03-23T02:56:23;99962.59;;;9.58;100.00
73558;BME280;61829;53.286;10.434;2023-03-23T02:58:50;99956.00;;;9.61;100.00
73558;BME280;61829;53.286;10.434;2023-03-23T03:03:52;99940.47;;;9.63;100.00
73558;BME280;61829;53.286;10.434;2023-03-23T03:06:41;99932.59;;;9.61;100.00
73558;BME280;61829;53.286;10.434;2023-03-23T03:12:21;99938.81;;;9.62;100.00
73558;BME280;61829;53.286;10.434;2023-03-23T03:15:00;99926.81;;;9.64;100.00
73558;BME280;61829;53.286;10.434;2023-03-23T03:17:29;99928.69;;;9.64;100.00
73558;BME280;61829;53.286;10.434;2023-03-23T03:19:59;99931.38;;;9.64;100.00
73558;BME280;61829;53.286;10.434;2023-03-23T03:22:32;99943.59;;;9.66;100.00
73558;BME280;61829;53.286;10.434;2023-03-23T03:24:59;99938.41;;;9.65;100.00
73558;BME280;61829;53.286;10.434;2023-03-23T03:27:26;99921.44;;;9.64;100.00
73558;BME280;61829;53.286;10.434;2023-03-23T03:29:58;99923.13;;;9.65;100.00
73558;BME280;61829;53.286;10.434;2023-03-23T03:32:31;99900.56;;;9.66;100.00
73558;BME280;61829;53.286;10.434;2023-03-23T03:35:02;99899.72;;;9.66;100.00
73558;BME280;61829;53.286;10.434;2023-03-23T03:37:36;99874.47;;;9.67;100.00
73558;BME280;61829;53.286;10.434;2023-03-23T03:40:08;99871.78;;;9.67;100.00
73558;BME280;61829;53.286;10.434;2023-03-23T03:42:41;99892.66;;;9.65;100.00
73558;BME280;61829;53.286;10.434;2023-03-23T03:45:09;99915.03;;;9.65;100.00
73558;BME280;61829;53.286;10.434;2023-03-23T03:47:35;99905.72;;;9.68;100.00
73558;BME280;61829;53.286;10.434;2023-03-23T03:50:01;99884.19;;;9.68;100.00
73558;BME280;61829;53.286;10.434;2023-03-23T03:52:27;99902.66;;;9.71;100.00
73558;BME280;61829;53.286;10.434;2023-03-23T03:54:53;99893.53;;;9.72;100.00
73558;BME280;61829;53.286;10.434;2023-03-23T03:57:19;99895.41;;;9.72;100.00
73558;BME280;61829;53.286;10.434;2023-03-23T03:59:45;99895.19;;;9.73;100.00
73558;BME280;61829;53.286;10.434;2023-03-23T04:02:11;99896.00;;;9.74;100.00
73558;BME280;61829;53.286;10.434;2023-03-23T04:04:40;99895.00;;;9.75;100.00
73558;BME280;61829;53.286;10.434;2023-03-23T04:07:07;99888.78;;;9.74;100.00
73558;BME280;61829;53.286;10.434;2023-03-23T04:09:37;99880.31;;;9.77;100.00
73558;BME280;61829;53.286;10.434;2023-03-23T04:12:04;99876.38;;;9.80;100.00
73558;BME280;61829;53.286;10.434;2023-03-23T04:14:30;99861.25;;;9.79;100.00
73558;BME280;61829;53.286;10.434;2023-03-23T04:16:55;99859.41;;;9.79;100.00
73558;BME280;61829;53.286;10.434;2023-03-23T04:19:23;99846.78;;;9.80;100.00
73558;BME280;61829;53.286;10.434;2023-03-23T04:21:49;99856.50;;;9.81;100.00
73558;BME280;61829;53.286;10.434;2023-03-23T04:24:15;99852.19;;;9.80;100.00
73558;BME280;61829;53.286;10.434;2023-03-23T04:26:42;99847.63;;;9.80;100.00
73558;BME280;61829;53.286;10.434;2023-03-23T04:29:08;99844.72;;;9.82;100.00
73558;BME280;61829;53.286;10.434;2023-03-23T04:31:35;99843.88;;;9.81;100.00
73558;BME280;61829;53.286;10.434;2023-03-23T04:34:01;99840.19;;;9.82;100.00
73558;BME280;61829;53.286;10.434;2023-03-23T04:36:28;99849.25;;;9.81;100.00
73558;BME280;61829;53.286;10.434;2023-03-23T04:38:59;99848.44;;;9.81;100.00
73558;BME280;61829;53.286;10.434;2023-03-23T04:41:26;99850.94;;;9.82;100.00
73558;BME280;61829;53.286;10.434;2023-03-23T04:43:52;99844.53;;;9.83;100.00
73558;BME280;61829;53.286;10.434;2023-03-23T04:46:22;99855.47;;;9.82;100.00
73558;BME280;61829;53.286;10.434;2023-03-23T04:48:48;99860.44;;;9.85;100.00
73558;BME280;61829;53.286;10.434;2023-03-23T04:51:14;99846.97;;;9.85;100.00
73558;BME280;61829;53.286;10.434;2023-03-23T04:53:39;99852.81;;;9.88;100.00
73558;BME280;61829;53.286;10.434;2023-03-23T04:56:07;99860.47;;;9.92;100.00
73558;BME280;61829;53.286;10.434;2023-03-23T04:58:32;99861.09;;;9.94;100.00
73558;BME280;61829;53.286;10.434;2023-03-23T05:01:02;99862.94;;;9.93;100.00
73558;BME280;61829;53.286;10.434;2023-03-23T05:03:30;99860.88;;;9.95;100.00
73558;BME280;61829;53.286;10.434;2023-03-23T05:05:56;99833.16;;;9.95;100.00
73558;BME280;61829;53.286;10.434;2023-03-23T05:08:23;99849.28;;;9.95;100.00
73558;BME280;61829;53.286;10.434;2023-03-23T05:10:57;99832.94;;;9.96;100.00
73558;BME280;61829;53.286;10.434;2023-03-23T05:13:23;99847.25;;;9.97;100.00
73558;BME280;61829;53.286;10.434;2023-03-23T05:15:49;99846.81;;;10.00;100.00
73558;BME280;61829;53.286;10.434;2023-03-23T05:18:15;99847.84;;;9.99;100.00
73558;BME280;61829;53.286;10.434;2023-03-23T05:20:42;99846.00;;;9.99;100.00
73558;BME280;61829;53.286;10.434;2023-03-23T05:23:09;99846.00;;;9.99;100.00
73558;BME280;61829;53.286;10.434;2023-03-23T05:25:35;99851.56;;;9.98;100.00
73558;BME280;61829;53.286;10.434;2023-03-23T05:28:02;99842.47;;;9.99;100.00
73558;BME280;61829;53.286;10.434;2023-03-23T05:30:28;99848.88;;;9.98;100.00
73558;BME280;61829;53.286;10.434;2023-03-23T05:32:55;99844.53;;;9.97;100.00
73558;BME280;61829;53.286;10.434;2023-03-23T05:35:21;99852.63;;;9.97;100.00
73558;BME280;61829;53.286;10.434;2023-03-23T05:37:47;99842.88;;;9.96;100.00
73558;BME280;61829;53.286;10.434;2023-03-23T05:40:14;99844.72;;;9.95;100.00
73558;BME280;61829;53.286;10.434;2023-03-23T05:42:40;99852.00;;;9.95;100.00
73558;BME280;61829;53.286;10.434;2023-03-23T05:45:08;99844.72;;;9.95;100.00
73558;BME280;61829;53.286;10.434;2023-03-23T05:47:37;99849.50;;;9.93;100.00
73558;BME280;61829;53.286;10.434;2023-03-23T05:50:04;99840.41;;;9.94;100.00
73558;BME280;61829;53.286;10.434;2023-03-23T05:52:32;99835.22;;;9.93;100.00
73558;BME280;61829;53.286;10.434;2023-03-23T05:55:01;99834.19;;;9.94;100.00
73558;BME280;61829;53.286;10.434;2023-03-23T05:57:29;99845.34;;;9.90;100.00
73558;BME280;61829;53.286;10.434;2023-03-23T05:59:55;99836.25;;;9.92;100.00
73558;BME280;61829;53.286;10.434;2023-03-23T06:02:23;99847.22;;;9.90;100.00
73558;BME280;61829;53.286;10.434;2023-03-23T06:04:53;99844.31;;;9.92;100.00
73558;BME280;61829;53.286;10.434;2023-03-23T06:07:24;99851.56;;;9.91;100.00
73558;BME280;61829;53.286;10.434;2023-03-23T06:09:51;99852.41;;;9.92;100.00
73558;BME280;61829;53.286;10.434;2023-03-23T06:12:18;99850.72;;;9.90;100.00
73558;BME280;61829;53.286;10.434;2023-03-23T06:14:49;99843.28;;;9.93;100.00
73558;BME280;61829;53.286;10.434;2023-03-23T06:17:15;99849.06;;;9.96;100.00
73558;BME280;61829;53.286;10.434;2023-03-23T06:19:43;99850.53;;;9.99;100.00
73558;BME280;61829;53.286;10.434;2023-03-23T06:22:12;99844.31;;;9.98;100.00
73558;BME280;61829;53.286;10.434;2023-03-23T06:24:38;99842.47;;;9.99;100.00
73558;BME280;61829;53.286;10.434;2023-03-23T06:27:04;99831.28;;;10.02;100.00
73558;BME280;61829;53.286;10.434;2023-03-23T06:29:30;99836.47;;;10.03;100.00
73558;BME280;61829;53.286;10.434;2023-03-23T06:31:59;99840.63;;;10.06;100.00
73558;BME280;61829;53.286;10.434;2023-03-23T06:34:26;99840.41;;;10.07;100.00
73558;BME280;61829;53.286;10.434;2023-03-23T06:36:51;99853.44;;;10.10;100.00
73558;BME280;61829;53.286;10.434;2023-03-23T06:39:18;99852.19;;;10.13;99.99
73558;BME280;61829;53.286;10.434;2023-03-23T06:41:43;99848.28;;;10.16;100.00
73558;BME280;61829;53.286;10.434;2023-03-23T06:44:09;99857.59;;;10.20;99.48
73558;BME280;61829;53.286;10.434;2023-03-23T06:46:39;99856.38;;;10.22;99.38
73558;BME280;61829;53.286;10.434;2023-03-23T06:49:05;99863.41;;;10.23;98.63
73558;BME280;61829;53.286;10.434;2023-03-23T06:51:31;99868.59;;;10.25;98.79
73558;BME280;61829;53.286;10.434;2023-03-23T06:53:58;99855.75;;;10.27;97.70
73558;BME280;61829;53.286;10.434;2023-03-23T06:56:24;99860.97;;;10.28;98.13
73558;BME280;61829;53.286;10.434;2023-03-23T06:58:50;99862.81;;;10.28;97.67
73558;BME280;61829;53.286;10.434;2023-03-23T07:01:16;99857.22;;;10.29;97.74
73558;BME280;61829;53.286;10.434;2023-03-23T07:03:42;99866.75;;;10.32;97.58
73558;BME280;61829;53.286;10.434;2023-03-23T07:06:09;99859.94;;;10.36;97.15
73558;BME280;61829;53.286;10.434;2023-03-23T07:08:36;99859.91;;;10.43;96.92
73558;BME280;61829;53.286;10.434;2023-03-23T07:11:04;99873.38;;;10.49;97.05
73558;BME280;61829;53.286;10.434;2023-03-23T07:13:31;99868.19;;;10.54;96.60
73558;BME280;61829;53.286;10.434;2023-03-23T07:15:57;99856.38;;;10.62;96.10
73558;BME280;61829;53.286;10.434;2023-03-23T07:18:26;99846.41;;;10.69;95.10
73558;BME280;61829;53.286;10.434;2023-03-23T07:20:53;99852.81;;;10.75;94.86
73558;BME280;61829;53.286;10.434;2023-03-23T07:23:19;99855.94;;;10.78;94.71
73558;BME280;61829;53.286;10.434;2023-03-23T07:25:47;99856.75;;;10.86;94.28
73558;BME280;61829;53.286;10.434;2023-03-23T07:28:15;99852.59;;;10.90;94.47
73558;BME280;61829;53.286;10.434;2023-03-23T07:30:41;99866.25;;;10.95;94.13
73558;BME280;61829;53.286;10.434;2023-03-23T07:33:08;99862.72;;;11.01;93.90
73558;BME280;61829;53.286;10.434;2023-03-23T07:35:34;99866.84;;;11.10;93.17
73558;BME280;61829;53.286;10.434;2023-03-23T07:38:02;99867.00;;;11.29;93.01
73558;BME280;61829;53.286;10.434;2023-03-23T07:40:28;99880.97;;;11.57;91.64
73558;BME280;61829;53.286;10.434;2023-03-23T07:42:56;99876.69;;;11.88;90.53
73558;BME280;61829;53.286;10.434;2023-03-23T07:45:23;99876.69;;;11.88;89.85
73558;BME280;61829;53.286;10.434;2023-03-23T07:47:49;99895.19;;;11.84;89.31
73558;BME280;61829;53.286;10.434;2023-03-23T07:50:15;99885.88;;;11.74;89.13
73558;BME280;61829;53.286;10.434;2023-03-23T07:52:42;99887.38;;;11.63;89.98
73558;BME280;61829;53.286;10.434;2023-03-23T07:55:10;99886.03;;;11.47;92.08
73558;BME280;61829;53.286;10.434;2023-03-23T07:57:47;99881.88;;;11.38;93.26
73558;BME280;61829;53.286;10.434;2023-03-23T08:00:16;99881.91;;;11.31;94.68
73558;BME280;61829;53.286;10.434;2023-03-23T08:02:56;99884.41;;;11.26;96.07
73558;BME280;61829;53.286;10.434;2023-03-23T08:05:23;99877.59;;;11.23;95.89
73558;BME280;61829;53.286;10.434;2023-03-23T08:07:52;99884.03;;;11.22;96.10
73558;BME280;61829;53.286;10.434;2023-03-23T08:10:22;99891.50;;;11.20;96.04
73558;BME280;61829;53.286;10.434;2023-03-23T08:12:54;99884.03;;;11.22;95.74
73558;BME280;61829;53.286;10.434;2023-03-23T08:15:23;99888.97;;;11.32;95.70
73558;BME280;61829;53.286;10.434;2023-03-23T08:17:50;99889.38;;;11.36;94.88
73558;BME280;61829;53.286;10.434;2023-03-23T08:20:17;99890.94;;;11.63;94.33
73558;BME280;61829;53.286;10.434;2023-03-23T08:22:50;99891.75;;;12.09;93.30
73558;BME280;61829;53.286;10.434;2023-03-23T08:25:19;99893.97;;;12.19;92.75
73558;BME280;61829;53.286;10.434;2023-03-23T08:27:45;99890.59;;;12.23;92.83
73558;BME280;61829;53.286;10.434;2023-03-23T08:30:17;99891.88;;;12.21;91.10
73558;BME280;61829;53.286;10.434;2023-03-23T08:32:43;99889.13;;;12.27;89.75
73558;BME280;61829;53.286;10.434;2023-03-23T08:35:12;99887.13;;;12.41;89.22
73558;BME280;61829;53.286;10.434;2023-03-23T08:37:38;99886.94;;;12.43;88.64
73558;BME280;61829;53.286;10.434;2023-03-23T08:40:05;99892.09;;;12.44;88.64
73558;BME280;61829;53.286;10.434;2023-03-23T08:42:37;99885.88;;;12.44;88.31
73558;BME280;61829;53.286;10.434;2023-03-23T08:45:09;99899.84;;;12.34;87.90
73558;BME280;61829;53.286;10.434;2023-03-23T08:47:36;99907.13;;;12.33;88.39
73558;BME280;61829;53.286;10.434;2023-03-23T08:50:07;99900.31;;;12.31;88.74
73558;BME280;61829;53.286;10.434;2023-03-23T08:52:34;99898.84;;;12.28;88.01
73558;BME280;61829;53.286;10.434;2023-03-23T08:55:01;99904.13;;;12.23;88.41
73558;BME280;61829;53.286;10.434;2023-03-23T08:57:27;99898.47;;;12.25;88.64
73558;BME280;61829;53.286;10.434;2023-03-23T08:59:53;99902.63;;;12.27;88.34
73558;BME280;61829;53.286;10.434;2023-03-23T09:02:26;99895.94;;;12.30;88.67
73558;BME280;61829;53.286;10.434;2023-03-23T09:04:53;99901.56;;;12.28;87.63
73558;BME280;61829;53.286;10.434;2023-03-23T09:07:19;99895.78;;;12.25;87.67
73558;BME280;61829;53.286;10.434;2023-03-23T09:09:45;99912.00;;;12.25;89.10
73558;BME280;61829;53.286;10.434;2023-03-23T09:12:12;99912.66;;;12.20;89.31
73558;BME280;61829;53.286;10.434;2023-03-23T09:14:39;99920.78;;;12.13;90.66
73558;BME280;61829;53.286;10.434;2023-03-23T09:17:05;99943.88;;;12.09;92.34
73558;BME280;61829;53.286;10.434;2023-03-23T09:19:34;99953.06;;;12.02;94.13
73558;BME280;61829;53.286;10.434;2023-03-23T09:22:01;99950.66;;;11.87;95.75
73558;BME280;61829;53.286;10.434;2023-03-23T09:24:27;99947.72;;;11.82;95.85
73558;BME280;61829;53.286;10.434;2023-03-23T09:26:53;99946.06;;;11.81;96.79
73558;BME280;61829;53.286;10.434;2023-03-23T09:29:19;99958.94;;;11.79;96.48
73558;BME280;61829;53.286;10.434;2023-03-23T09:31:46;99967.47;;;11.76;96.43
73558;BME280;61829;53.286;10.434;2023-03-23T09:34:14;99965.03;;;11.67;96.12
73558;BME280;61829;53.286;10.434;2023-03-23T09:36:43;99957.34;;;11.64;96.06
73558;BME280;61829;53.286;10.434;2023-03-23T09:39:10;99961.25;;;11.68;96.13
73558;BME280;61829;53.286;10.434;2023-03-23T09:47:21;99976.88;;;11.60;93.26
73558;BME280;61829;53.286;10.434;2023-03-23T09:50:03;99981.88;;;11.56;93.16
73558;BME280;61829;53.286;10.434;2023-03-23T09:52:50;99990.16;;;11.55;92.56
73558;BME280;61829;53.286;10.434;2023-03-23T09:55:18;99989.56;;;11.53;92.37
73558;BME280;61829;53.286;10.434;2023-03-23T09:58:02;99996.84;;;11.52;92.45
73558;BME280;61829;53.286;10.434;2023-03-23T10:00:34;99986.44;;;11.56;92.08
73558;BME280;61829;53.286;10.434;2023-03-23T10:03:06;99971.91;;;11.63;92.35
73558;BME280;61829;53.286;10.434;2023-03-23T10:05:41;99986.81;;;11.73;92.81
73558;BME280;61829;53.286;10.434;2023-03-23T10:08:16;99982.38;;;11.85;92.25
73558;BME280;61829;53.286;10.434;2023-03-23T10:13:18;100011.88;;;11.93;89.45
73558;BME280;61829;53.286;10.434;2023-03-23T10:15:45;100018.34;;;11.92;89.15
73558;BME280;61829;53.286;10.434;2023-03-23T10:18:17;100020.84;;;11.87;87.85
73558;BME280;61829;53.286;10.434;2023-03-23T10:20:58;100011.91;;;11.86;89.01
73558;BME280;61829;53.286;10.434;2023-03-23T10:28:48;100015.22;;;11.82;86.26
73558;BME280;61829;53.286;10.434;2023-03-23T10:31:28;100026.63;;;11.84;86.59
73558;BME280;61829;53.286;10.434;2023-03-23T10:34:01;100022.25;;;11.83;85.78
73558;BME280;61829;53.286;10.434;2023-03-23T10:36:33;100022.91;;;11.78;86.26
73558;BME280;61829;53.286;10.434;2023-03-23T10:39:06;100030.78;;;11.80;86.99
73558;BME280;61829;53.286;10.434;2023-03-23T10:41:34;100023.72;;;11.79;85.25
73558;BME280;61829;53.286;10.434;2023-03-23T10:44:04;100036.41;;;11.78;85.63
73558;BME280;61829;53.286;10.434;2023-03-23T10:46:46;100036.81;;;11.82;85.95
73558;BME280;61829;53.286;10.434;2023-03-23T10:49:21;100037.22;;;11.79;85.09
73558;BME280;61829;53.286;10.434;2023-03-23T10:51:57;100035.34;;;11.79;85.36
73558;BME280;61829;53.286;10.434;2023-03-23T10:54:31;100041.19;;;11.76;85.67
73558;BME280;61829;53.286;10.434;2023-03-23T10:56:58;100033.72;;;11.72;86.77
73558;BME280;61829;53.286;10.434;2023-03-23T10:59:29;100041.22;;;11.69;88.47
73558;BME280;61829;53.286;10.434;2023-03-23T11:02:02;100040.38;;;11.62;89.12
73558;BME280;61829;53.286;10.434;2023-03-23T11:04:30;100031.88;;;11.59;89.25
73558;BME280;61829;53.286;10.434;2023-03-23T11:07:00;100048.09;;;11.52;89.87
73558;BME280;61829;53.286;10.434;2023-03-23T11:09:37;100049.34;;;11.50;89.79
73558;BME280;61829;53.286;10.434;2023-03-23T11:12:04;100039.59;;;11.42;90.14
73558;BME280;61829;53.286;10.434;2023-03-23T11:14:31;100050.81;;;11.39;90.42
73558;BME280;61829;53.286;10.434;2023-03-23T11:17:00;100050.81;;;11.39;89.81
73558;BME280;61829;53.286;10.434;2023-03-23T11:19:29;100048.13;;;11.39;90.83
73558;BME280;61829;53.286;10.434;2023-03-23T11:24:33;100054.31;;;11.46;91.02
73558;BME280;61829;53.286;10.434;2023-03-23T11:27:00;100064.06;;;11.54;90.93
73558;BME280;61829;53.286;10.434;2023-03-23T11:29:30;100054.94;;;11.61;90.39
73558;BME280;61829;53.286;10.434;2023-03-23T11:34:31;100069.00;;;11.77;89.04
73558;BME280;61829;53.286;10.434;2023-03-23T11:37:08;100078.94;;;11.83;89.57
73558;BME280;61829;53.286;10.434;2023-03-23T11:39:57;100074.81;;;11.87;87.91
73558;BME280;61829;53.286;10.434;2023-03-23T11:42:35;100068.38;;;11.88;87.54
73558;BME280;61829;53.286;10.434;2023-03-23T11:47:45;100057.56;;;11.88;87.49
73558;BME280;61829;53.286;10.434;2023-03-23T11:53:13;100068.78;;;11.85;86.22
73558;BME280;61829;53.286;10.434;2023-03-23T11:56:11;100047.41;;;11.83;85.50
73558;BME280;61829;53.286;10.434;2023-03-23T11:58:33;100064.41;;;11.84;85.18
73558;BME280;61829;53.286;10.434;2023-03-23T12:01:32;100056.13;;;11.85;85.29
73558;BME280;61829;53.286;10.434;2023-03-23T12:12:15;100072.97;;;11.67;85.52
73558;BME280;61829;53.286;10.434;2023-03-23T12:20:29;100082.91;;;11.74;84.74
73558;BME280;61829;53.286;10.434;2023-03-23T12:23:34;100076.47;;;11.81;84.49
73558;BME280;61829;53.286;10.434;2023-03-23T12:31:24;100080.09;;;12.27;83.85
73558;BME280;61829;53.286;10.434;2023-03-23T12:53:05;100066.00;;;12.56;83.35
73558;BME280;61829;53.286;10.434;2023-03-23T12:55:37;100072.22;;;12.64;83.54
73558;BME280;61829;53.286;10.434;2023-03-23T12:58:12;100077.19;;;12.67;83.46
73558;BME280;61829;53.286;10.434;2023-03-23T13:00:50;100069.91;;;12.67;83.30
73558;BME280;61829;53.286;10.434;2023-03-23T13:03:33;100063.03;;;12.65;83.49
73558;BME280;61829;53.286;10.434;2023-03-23T13:08:44;100066.63;;;12.58;83.26
73558;BME280;61829;53.286;10.434;2023-03-23T13:11:19;100063.28;;;12.56;83.86
73558;BME280;61829;53.286;10.434;2023-03-23T13:13:52;100060.38;;;12.58;83.72
73558;BME280;61829;53.286;10.434;2023-03-23T13:25:00;100058.63;;;12.77;84.96
73558;BME280;61829;53.286;10.434;2023-03-23T13:27:28;100064.75;;;12.91;83.58
73558;BME280;61829;53.286;10.434;2023-03-23T13:29:55;100064.22;;;13.07;83.65
73558;BME280;61829;53.286;10.434;2023-03-23T13:32:36;100068.69;;;13.20;82.43
73558;BME280;61829;53.286;10.434;2023-03-23T13:35:05;100054.47;;;13.31;80.82
73558;BME280;61829;53.286;10.434;2023-03-23T13:37:44;100045.63;;;13.42;80.53
73558;BME280;61829;53.286;10.434;2023-03-23T13:42:48;100038.78;;;13.58;77.51
73558;BME280;61829;53.286;10.434;2023-03-23T13:45:46;100026.84;;;13.66;78.67
73558;BME280;61829;53.286;10.434;2023-03-23T13:50:58;100032.59;;;13.76;76.84
73558;BME280;61829;53.286;10.434;2023-03-23T13:53:31;100033.31;;;13.83;77.52
73558;BME280;61829;53.286;10.434;2023-03-23T13:56:35;100025.34;;;13.88;77.48
73558;BME280;61829;53.286;10.434;2023-03-23T13:59:45;100026.41;;;13.87;75.27
73558;BME280;61829;53.286;10.434;2023-03-23T14:02:34;100033.47;;;13.88;74.22
73558;BME280;61829;53.286;10.434;2023-03-23T14:05:29;100030.97;;;13.87;74.21
73558;BME280;61829;53.286;10.434;2023-03-23T14:08:02;100038.28;;;13.86;73.32
73558;BME280;61829;53.286;10.434;2023-03-23T14:18:59;100049.88;;;13.93;73.34
73558;BME280;61829;53.286;10.434;2023-03-23T14:24:21;100062.38;;;13.95;72.91
73558;BME280;61829;53.286;10.434;2023-03-23T14:26:49;100062.72;;;13.98;72.56
73558;BME280;61829;53.286;10.434;2023-03-23T14:29:19;100049.88;;;13.93;72.32
73558;BME280;61829;53.286;10.434;2023-03-23T14:31:52;100040.84;;;13.81;72.77
73558;BME280;61829;53.286;10.434;2023-03-23T14:34:20;100045.66;;;13.79;72.95
73558;BME280;61829;53.286;10.434;2023-03-23T14:36:47;100033.31;;;13.83;73.59
73558;BME280;61829;53.286;10.434;2023-03-23T14:39:24;100026.72;;;13.79;73.42
73558;BME280;61829;53.286;10.434;2023-03-23T14:41:53;100030.25;;;13.80;72.95
73558;BME280;61829;53.286;10.434;2023-03-23T14:44:31;100044.41;;;13.82;73.28
73558;BME280;61829;53.286;10.434;2023-03-23T14:47:09;100047.94;;;13.82;72.64
73558;BME280;61829;53.286;10.434;2023-03-23T14:49:40;100038.22;;;13.75;72.42
73558;BME280;61829;53.286;10.434;2023-03-23T14:52:15;100045.06;;;13.77;72.70
73558;BME280;61829;53.286;10.434;2023-03-23T14:54:43;100044.84;;;13.79;72.54